Time;durP1;ratioP1;P1;durP2;ratioP2;P2;SDS_P1;SDS_P2;PMS_P1;PMS_P2;Temp;Humidity;BMP_temperature;BMP_pressure;BME280_temperature;BME280_humidity;BME280_pressure;Samples;Min_cycle;Max_cycle;Signal;HPM_P1;HPM_P2
2022/10/11 00:01:18;;;;;;;12.53;6.65;;;;;;;13.34;97.68;100502.88;2865308;80;20992;-90
2022/10/11 00:05:19;;;;;;;14.80;6.45;;;;;;;13.31;97.39;100499.62;2891877;80;21645;-91
2022/10/11 00:09:20;;;;;;;13.22;6.83;;;;;;;13.27;97.53;100514.61;2881287;80;21617;-89
2022/10/11 00:13:21;;;;;;;8.93;6.70;;;;;;;13.25;97.30;100511.23;2877326;80;21585;-90
2022/10/11 00:17:22;;;;;;;11.38;5.83;;;;;;;13.15;96.65;100522.38;2902995;80;21574;-90
2022/10/11 00:21:24;;;;;;;6.95;6.20;;;;;;;13.06;96.89;100525.88;2870885;80;21551;-90
2022/10/11 00:25:25;;;;;;;11.53;5.67;;;;;;;13.02;96.35;100529.80;2886290;80;21063;-90
2022/10/11 00:29:26;;;;;;;9.13;6.53;;;;;;;12.76;100.00;100540.45;2886392;80;21020;-89
2022/10/11 00:33:27;;;;;;;10.65;6.22;;;;;;;12.68;98.96;100538.45;2880288;80;21604;-90
2022/10/11 00:37:29;;;;;;;8.60;5.95;;;;;;;12.70;99.12;100543.16;2862284;80;21413;-89
2022/10/11 00:41:30;;;;;;;13.90;6.55;;;;;;;12.71;98.72;100543.52;2839185;81;21016;-90
2022/10/11 00:45:40;;;;;;;11.65;6.33;;;;;;;12.71;98.80;100549.36;2856041;80;21082;-90
2022/10/11 00:49:46;;;;;;;7.65;5.58;;;;;;;12.65;98.76;100550.73;2864658;80;21019;-90
2022/10/11 00:53:50;;;;;;;10.28;5.95;;;;;;;12.63;99.23;100546.49;2888306;80;21004;-91
2022/10/11 00:57:52;;;;;;;8.03;4.62;;;;;;;12.66;100.00;100546.22;2902647;80;21074;-91
2022/10/11 01:01:54;;;;;;;6.80;6.10;;;;;;;12.71;100.00;100550.69;2884207;80;21023;-90
2022/10/11 01:05:55;;;;;;;8.35;5.20;;;;;;;12.78;100.00;100551.02;2866129;80;21005;-90
2022/10/11 01:09:57;;;;;;;8.30;5.05;;;;;;;12.83;100.00;100557.61;2828323;79;21012;-90
2022/10/11 01:14:09;;;;;;;12.20;5.40;;;;;;;12.90;100.00;100561.94;2820701;82;20997;-90
2022/10/11 01:18:38;;;;;;;8.38;5.15;;;;;;;12.93;100.00;100564.33;2863999;80;21019;-90
2022/10/11 01:23:04;;;;;;;6.35;5.10;;;;;;;12.95;100.00;100566.37;2907515;80;21099;-91
2022/10/11 01:27:36;;;;;;;14.80;6.55;;;;;;;12.96;100.00;100567.23;2902729;80;21052;-90
2022/10/11 01:31:55;;;;;;;16.62;6.47;;;;;;;12.96;100.00;100575.23;2879269;80;21027;-90
2022/10/11 01:36:05;;;;;;;8.78;6.70;;;;;;;13.02;100.00;100581.88;2863781;80;21023;-88
2022/10/11 01:40:14;;;;;;;14.50;7.40;;;;;;;13.03;100.00;100589.73;2847353;80;21090;-89
2022/10/11 01:44:16;;;;;;;8.53;6.87;;;;;;;12.87;100.00;100600.92;2849361;80;21033;-90
2022/10/11 01:48:18;;;;;;;13.20;5.87;;;;;;;12.78;100.00;100603.06;2846406;81;21031;-90
2022/10/11 01:52:20;;;;;;;10.55;7.05;;;;;;;12.87;100.00;100608.92;2830406;80;21048;-91
2022/10/11 01:57:11;;;;;;;9.63;6.45;;;;;;;12.82;100.00;100610.65;2909450;79;21050;-90
2022/10/11 02:01:41;;;;;;;9.00;6.65;;;;;;;12.77;100.00;100618.22;2858908;80;21147;-90
2022/10/11 02:06:14;;;;;;;15.23;8.05;;;;;;;12.74;100.00;100629.64;2916309;80;21047;-90
2022/10/11 02:10:38;;;;;;;12.93;7.90;;;;;;;12.68;100.00;100633.20;2871419;80;22539;-90
2022/10/11 02:14:44;;;;;;;15.15;7.92;;;;;;;12.61;100.00;100634.71;2905495;80;21063;-89
2022/10/11 02:18:49;;;;;;;12.82;8.35;;;;;;;12.52;100.00;100638.14;2891584;80;21110;-90
2022/10/11 02:22:56;;;;;;;11.07;7.50;;;;;;;12.54;100.00;100641.52;2860684;80;21030;-90
2022/10/11 02:27:00;;;;;;;15.20;8.58;;;;;;;12.47;100.00;100642.52;2813548;82;21757;-89
2022/10/11 02:31:05;;;;;;;9.00;7.37;;;;;;;12.33;100.00;100647.69;2889941;79;21042;-89
2022/10/11 02:35:09;;;;;;;13.30;8.53;;;;;;;12.22;100.00;100649.09;2850668;81;21046;-90
2022/10/11 02:39:21;;;;;;;9.73;6.47;;;;;;;12.11;100.00;100649.48;2834849;81;21035;-90
2022/10/11 02:43:30;;;;;;;14.70;6.12;;;;;;;12.17;100.00;100648.61;2872824;80;21585;-90
2022/10/11 02:47:32;;;;;;;7.60;5.58;;;;;;;12.07;100.00;100661.85;2886009;80;21062;-90
2022/10/11 02:51:33;;;;;;;7.92;5.65;;;;;;;12.14;100.00;100670.56;2876190;80;21043;-89
2022/10/11 02:55:34;;;;;;;8.75;5.62;;;;;;;12.16;100.00;100685.58;2861636;80;21130;-90
2022/10/11 02:59:35;;;;;;;8.93;5.87;;;;;;;12.26;100.00;100687.36;2799004;81;21584;-90
2022/10/11 03:03:36;;;;;;;10.50;6.60;;;;;;;12.24;100.00;100698.65;2820500;80;21031;-90
2022/10/11 03:07:38;;;;;;;8.88;6.20;;;;;;;12.24;100.00;100694.64;2878683;79;21606;-90
2022/10/11 03:11:39;;;;;;;12.18;7.78;;;;;;;12.35;100.00;100711.09;2864555;80;21569;-89
2022/10/11 03:15:40;;;;;;;13.88;6.95;;;;;;;12.48;100.00;100711.42;2845053;80;21066;-89
2022/10/11 03:19:41;;;;;;;8.30;5.65;;;;;;;12.65;100.00;100716.20;2881036;80;21041;-90
2022/10/11 03:23:42;;;;;;;8.38;6.35;;;;;;;12.80;100.00;100718.56;2743601;82;21089;-89
2022/10/11 03:27:43;;;;;;;10.43;6.35;;;;;;;12.92;100.00;100732.19;2760199;83;21053;-86
2022/10/11 03:31:44;;;;;;;13.03;7.28;;;;;;;12.96;100.00;100734.95;2771706;83;21104;-86
2022/10/11 03:35:47;;;;;;;8.85;6.35;;;;;;;12.97;100.00;100731.80;2700537;84;21096;-86
2022/10/11 03:39:49;;;;;;;8.25;6.08;;;;;;;12.92;100.00;100733.52;2797507;82;21128;-86
2022/10/11 03:43:50;;;;;;;9.30;5.70;;;;;;;12.86;100.00;100750.06;2757751;83;21098;-86
2022/10/11 03:47:51;;;;;;;11.50;6.37;;;;;;;12.76;100.00;100751.80;2769787;83;21026;-86
2022/10/11 03:51:52;;;;;;;19.00;6.85;;;;;;;12.68;100.00;100761.31;2738118;84;21050;-87
2022/10/11 03:55:55;;;;;;;8.13;6.00;;;;;;;12.67;100.00;100768.96;2720481;85;21072;-87
2022/10/11 03:59:56;;;;;;;9.68;6.33;;;;;;;12.61;100.00;100772.63;2770192;83;21160;-86
2022/10/11 04:03:57;;;;;;;9.30;5.58;;;;;;;12.53;100.00;100773.25;2717727;85;20994;-86
2022/10/11 04:07:58;;;;;;;10.43;6.55;;;;;;;12.45;100.00;100777.05;2727393;84;21132;-86
2022/10/11 04:11:59;;;;;;;12.05;7.33;;;;;;;12.38;100.00;100783.37;2730315;83;21074;-86
2022/10/11 04:16:01;;;;;;;8.83;6.87;;;;;;;12.40;100.00;100794.29;2854521;80;21008;-88
2022/10/11 04:20:03;;;;;;;7.70;6.90;;;;;;;12.41;100.00;100795.98;2750311;81;21107;-88
2022/10/11 04:24:05;;;;;;;7.47;6.55;;;;;;;12.45;100.00;100796.56;2855132;80;21015;-87
2022/10/11 04:28:07;;;;;;;21.42;7.70;;;;;;;12.40;100.00;100800.09;2874844;80;21095;-87
2022/10/11 04:32:08;;;;;;;7.70;6.00;;;;;;;12.36;100.00;100805.33;2869598;80;21485;-87
2022/10/11 04:36:09;;;;;;;9.75;6.08;;;;;;;12.31;100.00;100812.36;2865685;80;21566;-87
2022/10/11 04:40:11;;;;;;;8.68;6.20;;;;;;;12.27;100.00;100815.75;2905296;80;21056;-87
2022/10/11 04:44:12;;;;;;;10.30;6.47;;;;;;;12.31;100.00;100823.03;2886276;80;21111;-87
2022/10/11 04:48:14;;;;;;;9.10;7.50;;;;;;;12.41;100.00;100828.47;2893235;80;21027;-87
2022/10/11 04:52:15;;;;;;;9.03;6.35;;;;;;;12.50;100.00;100828.20;2879805;80;21030;-87
2022/10/11 04:56:17;;;;;;;6.60;5.87;;;;;;;12.55;100.00;100832.20;2875320;81;21028;-87
2022/10/11 05:00:18;;;;;;;9.23;7.17;;;;;;;12.60;100.00;100841.17;2888533;80;21095;-87
2022/10/11 05:04:19;;;;;;;9.08;6.55;;;;;;;12.55;100.00;100850.88;2854850;81;21030;-87
2022/10/11 05:08:23;;;;;;;8.55;5.90;;;;;;;12.59;100.00;100857.30;2845413;82;21055;-87
2022/10/11 05:12:24;;;;;;;12.18;7.72;;;;;;;12.50;100.00;100867.77;2863062;81;21062;-87
2022/10/11 05:16:25;;;;;;;10.70;5.75;;;;;;;12.44;100.00;100868.23;2835066;80;21056;-87
2022/10/11 05:20:26;;;;;;;6.90;6.20;;;;;;;12.38;100.00;100869.60;2849096;82;21562;-87
2022/10/11 05:24:27;;;;;;;7.42;6.50;;;;;;;12.31;100.00;100887.05;2843936;82;21562;-87
2022/10/11 05:28:28;;;;;;;10.55;6.35;;;;;;;12.24;100.00;100892.52;2868354;82;21015;-87
2022/10/11 05:32:30;;;;;;;9.75;6.35;;;;;;;12.35;100.00;100899.67;2861785;82;20991;-87
2022/10/11 05:36:32;;;;;;;10.08;6.25;;;;;;;12.38;100.00;100913.62;2819033;81;21008;-87
2022/10/11 05:40:33;;;;;;;11.88;7.25;;;;;;;12.36;100.00;100912.87;2872803;81;20999;-87
2022/10/11 05:44:34;;;;;;;10.23;6.58;;;;;;;12.48;100.00;100919.55;2845391;81;21047;-87
2022/10/11 05:48:35;;;;;;;9.40;6.15;;;;;;;12.47;100.00;100921.34;2841226;82;21526;-87
2022/10/11 05:52:37;;;;;;;9.18;6.03;;;;;;;12.53;100.00;100922.69;2813133;82;21039;-87
2022/10/11 05:56:38;;;;;;;6.37;4.40;;;;;;;12.62;100.00;100931.77;2837702;81;21613;-87
2022/10/11 06:00:40;;;;;;;10.48;5.15;;;;;;;12.66;100.00;100935.41;2852319;82;21573;-87
2022/10/11 06:04:41;;;;;;;11.15;4.50;;;;;;;12.64;100.00;100943.17;2830141;82;21079;-87
2022/10/11 06:08:43;;;;;;;5.22;3.98;;;;;;;12.64;100.00;100953.84;2844631;82;21035;-87
2022/10/11 06:12:44;;;;;;;4.28;3.87;;;;;;;12.56;100.00;100967.80;2856401;82;21046;-87
2022/10/11 06:16:45;;;;;;;4.75;3.17;;;;;;;12.45;100.00;100977.99;2877243;80;21051;-87
2022/10/11 06:20:46;;;;;;;10.95;4.15;;;;;;;12.43;100.00;100987.47;2887672;81;21086;-87
2022/10/11 06:24:47;;;;;;;5.70;4.47;;;;;;;12.49;100.00;100995.95;2828202;82;21047;-87
2022/10/11 06:28:48;;;;;;;7.47;3.70;;;;;;;12.67;100.00;101002.50;2753084;82;21071;-87
2022/10/11 06:32:50;;;;;;;4.10;3.65;;;;;;;12.88;100.00;101007.09;2838936;82;21035;-87
2022/10/11 06:36:52;;;;;;;8.70;4.33;;;;;;;13.00;100.00;101014.13;2797301;81;21039;-87
2022/10/11 06:40:53;;;;;;;8.83;5.12;;;;;;;13.27;100.00;101015.52;2846885;81;21096;-87
2022/10/11 06:44:55;;;;;;;7.55;5.35;;;;;;;13.44;100.00;101026.69;2846638;82;21054;-87
2022/10/11 06:48:56;;;;;;;6.40;4.67;;;;;;;13.42;100.00;101029.94;2773823;82;21044;-87
2022/10/11 06:52:58;;;;;;;10.32;4.12;;;;;;;13.34;100.00;101036.38;2848090;81;21060;-87
2022/10/11 06:56:59;;;;;;;9.20;3.30;;;;;;;13.29;100.00;101034.94;2839115;82;20985;-88
2022/10/11 07:01:04;;;;;;;7.25;3.15;;;;;;;13.26;100.00;101042.34;2844473;82;21507;-87
2022/10/11 07:05:06;;;;;;;3.95;2.95;;;;;;;13.30;99.93;101058.52;2837531;82;21050;-87
2022/10/11 07:09:08;;;;;;;8.15;3.12;;;;;;;13.22;100.00;101060.94;2860798;82;21590;-87
2022/10/11 07:13:09;;;;;;;23.02;3.27;;;;;;;13.28;100.00;101065.31;2841716;82;21551;-87
2022/10/11 07:17:10;;;;;;;4.42;3.35;;;;;;;13.31;99.14;101070.04;2844160;81;21083;-87
2022/10/11 07:21:14;;;;;;;5.60;2.52;;;;;;;13.26;99.50;101071.27;2847842;82;20972;-87
2022/10/11 07:25:15;;;;;;;4.03;3.10;;;;;;;13.44;98.81;101080.13;2819089;82;21599;-87
2022/10/11 07:29:17;;;;;;;12.30;3.70;;;;;;;13.60;97.56;101088.23;2847284;82;21003;-87
2022/10/11 07:33:18;;;;;;;4.95;2.98;;;;;;;13.59;95.23;101087.38;2850801;82;21264;-87
2022/10/11 07:37:19;;;;;;;6.65;3.05;;;;;;;13.63;95.43;101088.81;2802951;81;21024;-87
2022/10/11 07:41:20;;;;;;;12.40;2.80;;;;;;;13.69;91.98;101098.16;2822266;82;20999;-87
2022/10/11 07:45:21;;;;;;;6.12;2.87;;;;;;;13.85;91.90;101099.93;2837481;82;21122;-87
2022/10/11 07:49:22;;;;;;;8.63;3.02;;;;;;;13.87;89.89;101106.50;2845644;82;21032;-87
2022/10/11 07:53:23;;;;;;;5.55;3.20;;;;;;;13.92;90.76;101108.77;2813815;82;20995;-87
2022/10/11 07:57:24;;;;;;;4.25;2.20;;;;;;;13.85;88.38;101107.95;2837461;82;21118;-87
2022/10/11 08:01:27;;;;;;;10.43;3.50;;;;;;;13.92;89.58;101116.80;2852512;81;21039;-87
2022/10/11 08:05:29;;;;;;;6.37;3.60;;;;;;;14.03;90.66;101122.12;2855345;82;21039;-87
2022/10/11 08:09:31;;;;;;;15.85;4.53;;;;;;;14.06;88.40;101125.03;2852671;82;21024;-87
2022/10/11 08:13:34;;;;;;;8.80;3.22;;;;;;;13.95;88.28;101120.08;2780909;82;20984;-87
2022/10/11 08:17:35;;;;;;;4.95;2.80;;;;;;;14.00;87.99;101128.56;2825282;81;21063;-87
2022/10/11 08:21:36;;;;;;;3.47;2.20;;;;;;;14.23;89.90;101128.45;2745564;82;21019;-87
2022/10/11 08:25:41;;;;;;;17.57;3.52;;;;;;;14.25;86.20;101135.03;2827603;82;20984;-87
2022/10/11 08:29:43;;;;;;;9.30;2.77;;;;;;;14.27;83.77;101141.09;2831769;82;29264;-87
2022/10/11 08:33:44;;;;;;;21.87;3.15;;;;;;;14.43;83.88;101134.81;2853482;81;21054;-87
2022/10/11 08:37:45;;;;;;;3.77;2.33;;;;;;;14.30;86.43;101136.82;2868487;81;21039;-87
2022/10/11 08:41:53;;;;;;;8.38;3.80;;;;;;;14.36;86.43;101137.66;2850488;81;21028;-87
2022/10/11 08:45:59;;;;;;;8.40;3.10;;;;;;;14.47;83.43;101143.91;2845716;81;21039;-87
2022/10/11 08:50:00;;;;;;;8.38;3.10;;;;;;;14.58;82.73;101150.55;2828368;82;21075;-87
2022/10/11 08:54:18;;;;;;;5.40;2.12;;;;;;;14.80;82.61;101140.70;2836190;81;21512;-87
2022/10/11 08:58:25;;;;;;;9.85;2.75;;;;;;;14.97;82.79;101142.77;2799180;82;21052;-87
2022/10/11 09:02:58;;;;;;;8.78;3.42;;;;;;;15.13;80.62;101146.77;2800313;82;21027;-87
2022/10/11 09:07:34;;;;;;;7.45;2.92;;;;;;;15.31;80.77;101146.13;2840733;81;21023;-87
2022/10/11 09:12:02;;;;;;;6.22;3.87;;;;;;;15.24;78.34;101148.53;2765513;83;21001;-87
2022/10/11 09:16:33;;;;;;;4.17;2.30;;;;;;;15.16;75.62;101163.08;2710049;86;21073;-87
2022/10/11 09:20:58;;;;;;;6.87;2.42;;;;;;;15.34;77.48;101159.28;2769130;84;21059;-87
2022/10/11 09:25:23;;;;;;;37.38;7.37;;;;;;;15.23;78.25;101159.73;2783045;83;21003;-88
2022/10/11 09:29:53;;;;;;;10.82;4.45;;;;;;;15.11;78.52;101160.79;2777261;84;21061;-87
2022/10/11 09:33:55;;;;;;;5.22;2.20;;;;;;;15.40;77.79;101153.38;2799826;84;21046;-87
2022/10/11 09:38:14;;;;;;;9.03;2.98;;;;;;;15.67;78.57;101151.87;2773485;84;21074;-86
2022/10/11 09:42:15;;;;;;;23.80;2.95;;;;;;;15.77;77.41;101152.76;2793575;84;21584;-86
2022/10/11 09:46:41;;;;;;;9.70;3.15;;;;;;;15.94;78.23;101152.59;2748601;84;21038;-87
2022/10/11 09:50:44;;;;;;;7.08;2.40;;;;;;;16.01;74.35;101151.54;2803509;84;21542;-86
2022/10/11 09:54:52;;;;;;;7.67;2.47;;;;;;;16.05;72.64;101142.21;2784219;84;21060;-86
2022/10/11 09:59:27;;;;;;;5.25;2.27;;;;;;;15.90;70.36;101152.52;2769541;83;21110;-86
2022/10/11 10:03:32;;;;;;;11.08;3.05;;;;;;;15.78;73.05;101143.72;2796911;84;21026;-86
2022/10/11 10:07:38;;;;;;;10.28;2.52;;;;;;;15.80;72.39;101147.59;2779312;84;21062;-86
2022/10/11 10:11:39;;;;;;;7.97;1.50;;;;;;;15.89;72.16;101147.28;2797133;83;21096;-87
2022/10/11 10:15:45;;;;;;;5.97;1.57;;;;;;;15.78;72.25;101146.88;2783186;84;21101;-86
2022/10/11 10:19:51;;;;;;;8.63;2.30;;;;;;;15.54;70.34;101146.77;2799590;84;21069;-86
2022/10/11 10:23:56;;;;;;;2.87;1.37;;;;;;;15.59;70.77;101148.54;2781368;84;21588;-86
2022/10/11 10:28:01;;;;;;;9.98;3.35;;;;;;;15.58;69.94;101144.67;2792655;83;21040;-87
2022/10/11 10:32:13;;;;;;;7.17;1.60;;;;;;;15.78;72.64;101148.22;2765463;84;21068;-86
2022/10/11 10:36:18;;;;;;;2.33;1.50;;;;;;;15.65;73.36;101140.45;2750041;84;21560;-87
2022/10/11 10:40:37;;;;;;;4.67;2.00;;;;;;;15.61;72.42;101150.59;2754583;85;21190;-86
2022/10/11 10:44:38;;;;;;;6.33;2.08;;;;;;;15.65;68.92;101148.02;2758645;84;21401;-87
2022/10/11 10:48:48;;;;;;;4.58;1.20;;;;;;;15.75;69.82;101153.39;2708255;84;21041;-86
2022/10/11 10:52:57;;;;;;;11.48;1.85;;;;;;;15.84;68.71;101155.23;2744827;84;21143;-86
2022/10/11 10:57:19;;;;;;;5.10;2.83;;;;;;;16.06;68.91;101142.56;2709109;85;21063;-86
2022/10/11 11:01:31;;;;;;;18.07;2.25;;;;;;;15.98;65.85;101142.43;2759014;84;21140;-86
2022/10/11 11:05:47;;;;;;;6.33;1.72;;;;;;;16.26;69.91;101150.13;2748187;84;21049;-86
2022/10/11 11:10:08;;;;;;;5.35;2.30;;;;;;;16.07;68.72;101146.11;2757083;84;21136;-86
2022/10/11 11:15:03;;;;;;;8.90;2.37;;;;;;;15.95;69.38;101146.74;2712197;85;21131;-86
2022/10/11 11:19:26;;;;;;;5.67;2.85;;;;;;;15.61;69.34;101149.25;2760396;85;21112;-86
2022/10/11 11:23:54;;;;;;;8.50;2.40;;;;;;;15.63;69.71;101153.14;2761699;85;21131;-87
2022/10/11 11:28:31;;;;;;;18.57;2.08;;;;;;;15.92;69.77;101147.03;2757136;83;21091;-86
2022/10/11 11:33:06;;;;;;;7.70;2.10;;;;;;;16.24;66.77;101143.20;2757026;84;21092;-86
2022/10/11 11:37:31;;;;;;;4.30;1.85;;;;;;;16.34;67.58;101145.40;2746347;84;21080;-86
2022/10/11 11:41:44;;;;;;;6.78;1.32;;;;;;;16.19;65.83;101141.45;2741473;85;21051;-86
2022/10/11 11:45:57;;;;;;;5.53;2.02;;;;;;;15.98;66.10;101149.14;2744909;84;21553;-86
2022/10/11 11:50:23;;;;;;;12.20;2.75;;;;;;;15.75;64.02;101149.37;2750843;84;21069;-86
2022/10/11 11:54:36;;;;;;;4.83;2.15;;;;;;;15.61;66.34;101151.09;2718858;85;21142;-87
2022/10/11 11:58:46;;;;;;;8.75;1.90;;;;;;;15.62;66.13;101147.42;2772104;84;21077;-86
2022/10/11 12:02:55;;;;;;;3.10;1.95;;;;;;;15.70;66.52;101147.57;2755823;83;21069;-86
2022/10/11 12:07:08;;;;;;;1.90;1.50;;;;;;;15.68;66.07;101142.84;2835658;81;21598;-86
2022/10/11 12:11:23;;;;;;;7.00;1.55;;;;;;;15.54;67.01;101145.43;2834428;82;21066;-86
2022/10/11 12:15:26;;;;;;;5.28;1.70;;;;;;;15.66;68.12;101140.80;2832062;82;21040;-86
2022/10/11 12:19:27;;;;;;;5.17;1.60;;;;;;;15.73;66.90;101137.07;2804590;82;21066;-86
2022/10/11 12:23:40;;;;;;;9.05;2.75;;;;;;;15.85;63.56;101142.67;2827390;82;21063;-86
2022/10/11 12:27:48;;;;;;;2.87;1.67;;;;;;;16.00;62.65;101140.45;2838243;81;21577;-86
2022/10/11 12:32:04;;;;;;;4.37;1.62;;;;;;;16.16;64.19;101139.88;2823218;81;21046;-86
2022/10/11 12:36:33;;;;;;;5.12;1.80;;;;;;;16.27;61.38;101134.86;2862416;82;21055;-86
2022/10/11 12:40:41;;;;;;;4.40;1.25;;;;;;;16.45;62.10;101132.80;2863213;81;21047;-86
2022/10/11 12:45:05;;;;;;;12.10;2.30;;;;;;;16.62;61.50;101132.05;2879897;81;21071;-86
2022/10/11 12:49:35;;;;;;;4.33;0.90;;;;;;;16.63;61.93;101133.75;2837918;82;21157;-86
2022/10/11 12:54:10;;;;;;;3.98;1.52;;;;;;;16.62;60.29;101133.40;2800485;82;21579;-86
2022/10/11 12:58:23;;;;;;;5.20;1.92;;;;;;;16.51;62.32;101132.23;2811158;82;21081;-86
2022/10/11 13:02:35;;;;;;;12.28;2.47;;;;;;;16.39;63.74;101132.37;2853422;80;21083;-92
2022/10/11 13:06:45;;;;;;;5.87;1.60;;;;;;;16.39;63.64;101135.55;2859892;81;21586;-93
2022/10/11 13:10:47;;;;;;;11.20;2.45;;;;;;;16.46;64.53;101135.34;2846784;82;21047;-92
2022/10/11 13:15:07;;;;;;;7.10;2.02;;;;;;;16.38;62.82;101128.00;2842986;82;21072;-86
2022/10/11 13:19:12;;;;;;;3.75;2.02;;;;;;;16.18;65.34;101131.70;2813419;82;21090;-87
2022/10/11 13:23:31;;;;;;;5.53;2.00;;;;;;;16.11;65.09;101130.07;2797971;82;21034;-87
2022/10/11 13:27:32;;;;;;;11.40;2.58;;;;;;;16.07;64.83;101129.50;2780382;84;21047;-87
2022/10/11 13:31:34;;;;;;;10.88;3.58;;;;;;;16.12;66.25;101127.73;2780987;84;20999;-87
2022/10/11 13:35:37;;;;;;;5.30;2.58;;;;;;;16.10;65.10;101129.72;2792318;84;21076;-87
2022/10/11 13:39:41;;;;;;;5.15;2.02;;;;;;;16.19;66.98;101133.39;2756257;84;21114;-87
2022/10/11 13:43:43;;;;;;;8.48;2.67;;;;;;;16.43;64.85;101126.24;2781993;84;21600;-88
2022/10/11 13:47:46;;;;;;;6.78;2.42;;;;;;;16.50;64.13;101122.45;2800550;84;21102;-88
2022/10/11 13:52:00;;;;;;;9.88;2.95;;;;;;;16.48;63.15;101128.47;2839691;82;21015;-88
2022/10/11 13:56:05;;;;;;;6.70;2.20;;;;;;;16.56;61.92;101126.76;2783721;83;21078;-86
2022/10/11 14:00:30;;;;;;;9.08;3.45;;;;;;;16.66;61.91;101128.08;2809043;82;21016;-87
2022/10/11 14:04:40;;;;;;;8.03;2.17;;;;;;;16.68;61.96;101127.95;2870284;82;21070;-87
2022/10/11 14:08:54;;;;;;;3.67;2.25;;;;;;;16.62;61.35;101130.71;2818367;82;21074;-87
2022/10/11 14:13:06;;;;;;;5.05;1.87;;;;;;;16.69;63.81;101129.64;2866304;82;21562;-87
2022/10/11 14:17:21;;;;;;;12.70;3.05;;;;;;;16.75;62.29;101129.05;2867067;81;21031;-87
2022/10/11 14:21:46;;;;;;;2.63;1.53;;;;;;;16.63;61.79;101128.37;2852872;80;21568;-91
2022/10/11 14:25:48;;;;;;;8.88;1.85;;;;;;;16.62;60.64;101132.05;2842847;82;22152;-91
2022/10/11 14:29:49;;;;;;;9.78;3.00;;;;;;;16.56;62.08;101133.98;2825953;82;21032;-91
2022/10/11 14:33:52;;;;;;;4.05;1.92;;;;;;;16.54;63.02;101137.31;2839198;80;21024;-91
2022/10/11 14:37:54;;;;;;;8.03;3.17;;;;;;;16.60;61.71;101135.86;2810324;81;21096;-91
2022/10/11 14:41:55;;;;;;;7.25;2.80;;;;;;;16.56;62.23;101139.36;2789655;81;21064;-90
2022/10/11 14:45:56;;;;;;;7.40;2.02;;;;;;;16.51;62.98;101138.95;2855748;80;21130;-91
2022/10/11 14:49:57;;;;;;;3.77;1.85;;;;;;;16.42;59.88;101134.78;2802303;81;21045;-90
2022/10/11 14:53:59;;;;;;;4.42;1.32;;;;;;;16.32;59.62;101139.33;2858207;81;21032;-91
2022/10/11 14:58:00;;;;;;;8.80;1.95;;;;;;;16.24;61.17;101141.86;2839452;80;21047;-91
2022/10/11 15:02:03;;;;;;;4.37;1.90;;;;;;;16.10;63.15;101139.95;2817756;82;21024;-92
2022/10/11 15:06:06;;;;;;;7.92;1.62;;;;;;;15.93;63.95;101135.30;2828474;81;21004;-91
2022/10/11 15:10:20;;;;;;;4.47;2.12;;;;;;;15.77;65.07;101139.83;2777325;80;21115;-91
2022/10/11 15:14:24;;;;;;;2.42;1.30;;;;;;;15.63;64.93;101141.94;2806616;82;21083;-90
2022/10/11 15:18:25;;;;;;;10.00;2.27;;;;;;;15.52;65.66;101140.70;2868517;80;21051;-92
2022/10/11 15:22:26;;;;;;;6.10;2.50;;;;;;;15.41;64.63;101143.00;2837543;81;21035;-91
2022/10/11 15:26:29;;;;;;;11.57;4.80;;;;;;;15.39;66.33;101143.63;2815729;82;21575;-91
2022/10/11 15:30:34;;;;;;;13.95;5.97;;;;;;;15.37;65.67;101146.95;2821798;80;21035;-91
2022/10/11 15:34:35;;;;;;;4.60;2.97;;;;;;;15.36;66.08;101143.41;2838216;82;21046;-90
2022/10/11 15:38:36;;;;;;;3.17;1.67;;;;;;;15.33;65.83;101145.50;2822444;80;21115;-90
2022/10/11 15:42:38;;;;;;;7.83;2.02;;;;;;;15.30;65.84;101143.09;2831178;81;21118;-89
2022/10/11 15:46:40;;;;;;;3.77;1.57;;;;;;;15.24;64.60;101148.53;2840641;82;21011;-90
2022/10/11 15:50:41;;;;;;;6.95;1.80;;;;;;;15.20;65.05;101150.62;2757298;82;21050;-88
2022/10/11 15:54:42;;;;;;;3.05;1.82;;;;;;;15.14;65.00;101148.49;2835738;82;21087;-88
2022/10/11 15:58:44;;;;;;;7.58;2.20;;;;;;;15.03;65.39;101154.76;2832883;82;21063;-89
2022/10/11 16:02:45;;;;;;;6.97;2.80;;;;;;;14.89;65.82;101155.13;2831521;81;21050;-89
2022/10/11 16:06:46;;;;;;;3.87;1.52;;;;;;;14.77;66.83;101163.23;2842779;82;21103;-89
2022/10/11 16:10:48;;;;;;;3.33;1.92;;;;;;;14.65;67.42;101161.09;2849429;81;21426;-89
2022/10/11 16:14:49;;;;;;;10.60;1.85;;;;;;;14.54;68.21;101164.68;2850797;80;21099;-89
2022/10/11 16:18:51;;;;;;;3.65;1.70;;;;;;;14.40;68.51;101162.31;2835905;81;21060;-89
2022/10/11 16:22:53;;;;;;;5.80;1.95;;;;;;;14.26;68.52;101164.82;2831700;80;21031;-89
2022/10/11 16:26:54;;;;;;;6.85;1.75;;;;;;;14.10;68.77;101159.41;2812390;82;21090;-89
2022/10/11 16:30:55;;;;;;;14.00;2.92;;;;;;;13.94;68.98;101161.64;2810321;82;21027;-90
2022/10/11 16:34:57;;;;;;;7.17;2.87;;;;;;;13.78;69.18;101167.41;2777169;81;21027;-90
2022/10/11 16:39:00;;;;;;;4.22;1.90;;;;;;;13.62;70.04;101172.66;2857909;82;21020;-90
2022/10/11 16:43:02;;;;;;;5.65;2.12;;;;;;;13.48;70.89;101174.28;2833117;80;21533;-89
2022/10/11 16:47:04;;;;;;;3.25;1.75;;;;;;;13.34;71.87;101172.19;2804706;80;21610;-88
2022/10/11 16:51:07;;;;;;;9.63;4.08;;;;;;;13.20;72.63;101177.30;2813197;82;21559;-89
2022/10/11 16:55:08;;;;;;;13.62;7.05;;;;;;;13.08;73.42;101176.45;2858351;80;21626;-89
2022/10/11 16:59:10;;;;;;;12.55;5.28;;;;;;;12.98;74.18;101179.45;2841444;81;21488;-89
2022/10/11 17:03:12;;;;;;;15.83;6.30;;;;;;;12.87;75.07;101180.30;2829170;80;21634;-89
2022/10/11 17:07:13;;;;;;;16.40;9.53;;;;;;;12.78;74.93;101189.03;2827373;81;21008;-89
2022/10/11 17:11:18;;;;;;;18.57;6.42;;;;;;;12.67;75.35;101192.02;2852039;82;21023;-88
2022/10/11 17:15:20;;;;;;;15.10;7.58;;;;;;;12.57;76.05;101199.87;2839964;82;21058;-89
2022/10/11 17:19:21;;;;;;;13.53;7.75;;;;;;;12.51;76.70;101198.16;2852789;81;21099;-89
2022/10/11 17:23:23;;;;;;;16.12;7.10;;;;;;;12.42;77.12;101205.03;2855666;82;21035;-88
2022/10/11 17:27:26;;;;;;;10.70;7.05;;;;;;;12.34;77.16;101206.94;2807690;82;21590;-89
2022/10/11 17:31:28;;;;;;;16.75;8.80;;;;;;;12.26;77.88;101216.02;2828693;81;21067;-85
2022/10/11 17:35:31;;;;;;;17.25;8.73;;;;;;;12.14;78.68;101214.61;2792157;80;21019;-86
2022/10/11 17:39:33;;;;;;;15.95;7.45;;;;;;;12.07;79.38;101215.17;2793437;82;21035;-86
2022/10/11 17:43:34;;;;;;;10.15;6.58;;;;;;;12.02;79.23;101215.53;2803382;82;20997;-86
2022/10/11 17:47:35;;;;;;;12.65;7.80;;;;;;;11.95;79.53;101210.22;2846454;80;21539;-86
2022/10/11 17:51:37;;;;;;;13.10;7.78;;;;;;;11.83;80.00;101215.50;2851371;81;20998;-86
2022/10/11 17:55:43;;;;;;;13.48;7.70;;;;;;;11.73;80.96;101211.78;2845978;81;21507;-86
2022/10/11 17:59:44;;;;;;;20.43;11.43;;;;;;;11.65;82.40;101215.00;2830337;81;21093;-86
2022/10/11 18:03:58;;;;;;;33.80;14.83;;;;;;;11.63;81.95;101220.09;2853380;82;21706;-85
2022/10/11 18:07:59;;;;;;;31.37;13.28;;;;;;;11.53;80.98;101218.06;2811001;81;21077;-85
2022/10/11 18:12:00;;;;;;;23.83;14.28;;;;;;;11.39;81.46;101224.38;2808936;82;21030;-85
2022/10/11 18:16:02;;;;;;;24.50;14.53;;;;;;;11.22;81.96;101220.24;2856647;80;21062;-87
2022/10/11 18:20:04;;;;;;;23.85;13.13;;;;;;;11.09;81.75;101224.70;2850510;81;21026;-87
2022/10/11 18:24:14;;;;;;;21.62;11.65;;;;;;;11.00;83.05;101227.06;2807704;82;21012;-88
2022/10/11 18:28:20;;;;;;;17.98;9.58;;;;;;;10.93;83.41;101232.41;2803938;81;21042;-88
2022/10/11 18:32:19;;;;;;;20.95;11.08;;;;;;;10.86;83.95;101230.64;2862962;80;21094;-86
2022/10/11 18:36:25;;;;;;;17.20;10.55;;;;;;;10.73;83.98;101231.59;2853916;80;21081;-86
2022/10/11 18:40:26;;;;;;;22.55;12.73;;;;;;;10.55;84.59;101232.73;2857669;81;21067;-86
2022/10/11 18:44:27;;;;;;;21.62;15.83;;;;;;;10.31;85.18;101231.64;2814183;82;21590;-86
2022/10/11 18:48:31;;;;;;;25.95;16.95;;;;;;;10.13;86.13;101237.23;2858758;80;21025;-86
2022/10/11 18:52:31;;;;;;;30.77;20.97;;;;;;;10.02;87.01;101238.39;2802660;82;21075;-86
2022/10/11 18:56:35;;;;;;;25.62;19.50;;;;;;;9.93;87.96;101239.38;2851718;80;21030;-86